< < Back
Terminal Aerodrome Forecast


Current Version              Previous Versions:   1  2  3  4  5  6  7  8  9  

Terminal Aerodrome Forecast

668
FTAK31 PAJN 211100
TAFAGS
TAF
PAGS 211138Z 2112/2212 00000KT P6SM VCFG FEW002 OVC050
     FM211400 01005KT 5SM -RA BR BKN035 OVC050
     FM212000 03005KT 5SM -RA BR BKN025 OVC040
     FM220600 VRB05KT 5SM BR SCT010 BKN030 OVC050
      AMD NOT SKED=

Latest METAR

916
SAUS70 KWBC 211600
MTRAGS
METAR KAGS 211553Z 36005KT 10SM CLR 15/00 A3040 RMK AO2 SLP294
T01500000


USA.gov is the U.S. government's official web portal to all federal, state and local government web resources and services.